createdAt,value
2022-09-06T00:01:23.584Z,101872.34
2022-09-06T00:03:51.026Z,101879.59
2022-09-06T00:06:20.368Z,101875.16
2022-09-06T00:08:48.540Z,101875.34
2022-09-06T00:11:16.920Z,101876.53
2022-09-06T00:13:44.615Z,101876.00
2022-09-06T00:16:17.898Z,101876.84
2022-09-06T00:18:45.418Z,101874.28
2022-09-06T00:21:19.336Z,101877.09
2022-09-06T00:23:46.964Z,101869.50
2022-09-06T00:26:14.392Z,101868.78
2022-09-06T00:28:41.335Z,101858.00
2022-09-06T00:31:13.523Z,101858.00
2022-09-06T00:33:40.747Z,101858.84
2022-09-06T00:36:08.908Z,101864.31
2022-09-06T00:38:36.006Z,101859.25
2022-09-06T00:41:03.431Z,101859.19
2022-09-06T00:43:30.244Z,101865.44
2022-09-06T00:45:57.587Z,101863.63
2022-09-06T00:48:24.660Z,101860.25
2022-09-06T00:50:55.277Z,101859.47
2022-09-06T00:53:22.404Z,101864.88
2022-09-06T00:55:49.536Z,101862.28
2022-09-06T00:58:16.406Z,101859.47
2022-09-06T01:00:44.869Z,101863.25
2022-09-06T01:03:13.069Z,101866.53
2022-09-06T01:05:54.651Z,101861.44
2022-09-06T01:08:40.262Z,101873.09
2022-09-06T01:11:51.651Z,101875.94
2022-09-06T01:14:30.018Z,101862.69
2022-09-06T01:17:15.243Z,101853.59
2022-09-06T01:19:54.231Z,101851.97
2022-09-06T01:22:58.960Z,101858.84
2022-09-06T01:25:36.600Z,101861.75
2022-09-06T01:28:21.910Z,101866.13
2022-09-06T01:31:02.520Z,101857.53
2022-09-06T01:33:46.484Z,101871.75
2022-09-06T01:36:21.014Z,101865.03
2022-09-06T01:38:47.909Z,101853.38
2022-09-06T01:41:14.702Z,101858.78
2022-09-06T01:43:45.833Z,101849.97
2022-09-06T01:46:44.624Z,101849.13
2022-09-06T01:49:40.608Z,101851.94
2022-09-06T01:52:10.289Z,101853.59
2022-09-06T01:54:58.829Z,101853.75
2022-09-06T01:58:15.987Z,101859.91
2022-09-06T02:00:58.205Z,101857.13
2022-09-06T02:03:24.901Z,101859.78
2022-09-06T02:05:56.091Z,101849.22
2022-09-06T02:08:32.489Z,101842.97
2022-09-06T02:11:06.181Z,101853.91
2022-09-06T02:13:40.926Z,101853.91
2022-09-06T02:16:10.818Z,101857.81
2022-09-06T02:18:44.351Z,101856.06
2022-09-06T02:21:15.068Z,101849.59
2022-09-06T02:23:44.257Z,101855.13
2022-09-06T02:26:17.598Z,101847.31
2022-09-06T02:28:44.760Z,101846.59
2022-09-06T02:31:39.458Z,101845.81
2022-09-06T02:34:07.610Z,101846.88
2022-09-06T02:36:36.797Z,101850.56
2022-09-06T02:39:05.522Z,101847.06
2022-09-06T02:41:33.457Z,101847.00
2022-09-06T02:44:00.239Z,101840.91
2022-09-06T02:46:27.070Z,101847.91
2022-09-06T02:48:53.887Z,101836.44
2022-09-06T02:51:20.770Z,101829.41
2022-09-06T02:53:47.811Z,101831.19
2022-09-06T02:56:14.944Z,101833.69
2022-09-06T02:58:41.832Z,101836.09
2022-09-06T03:01:09.146Z,101839.72
2022-09-06T03:03:36.022Z,101835.53
2022-09-06T03:06:02.816Z,101838.06
2022-09-06T03:08:33.620Z,101831.81
2022-09-06T03:11:01.179Z,101832.81
2022-09-06T03:13:28.409Z,101827.56
2022-09-06T03:15:57.751Z,101824.84
2022-09-06T03:18:26.074Z,101817.81
2022-09-06T03:20:54.680Z,101825.34
2022-09-06T03:23:25.159Z,101819.16
2022-09-06T03:25:52.320Z,101824.63
2022-09-06T03:28:20.641Z,101823.59
2022-09-06T03:30:49.569Z,101822.81
2022-09-06T03:33:17.067Z,101819.53
2022-09-06T03:35:56.076Z,101818.34
2022-09-06T03:38:23.850Z,101813.03
2022-09-06T03:40:51.496Z,101817.44
2022-09-06T03:43:19.551Z,101812.41
2022-09-06T03:45:52.268Z,101804.44
2022-09-06T03:48:22.698Z,101812.34
2022-09-06T03:50:52.568Z,101820.38
2022-09-06T03:53:19.388Z,101812.56
2022-09-06T03:55:48.377Z,101828.53
2022-09-06T03:58:16.888Z,101819.53
2022-09-06T04:00:44.564Z,101822.31
2022-09-06T04:03:12.165Z,101821.63
2022-09-06T04:05:39.065Z,101824.84
2022-09-06T04:08:06.107Z,101829.38
2022-09-06T04:10:33.926Z,101826.72
2022-09-06T04:13:00.728Z,101832.25
2022-09-06T04:15:27.708Z,101834.69
2022-09-06T04:17:54.488Z,101827.63
2022-09-06T04:20:21.634Z,101838.13
2022-09-06T04:22:48.546Z,101833.59
2022-09-06T04:25:15.406Z,101835.41
2022-09-06T04:27:42.245Z,101831.97
2022-09-06T04:30:09.474Z,101826.56
2022-09-06T04:32:36.252Z,101833.59
2022-09-06T04:35:03.197Z,101834.47
2022-09-06T04:37:29.980Z,101830.81
2022-09-06T04:39:57.320Z,101833.47
2022-09-06T04:42:24.145Z,101828.13
2022-09-06T04:44:51.047Z,101837.03
2022-09-06T04:47:19.260Z,101838.78
2022-09-06T04:49:48.203Z,101838.19
2022-09-06T04:52:15.553Z,101842.03
2022-09-06T04:54:42.407Z,101835.69
2022-09-06T04:57:09.551Z,101841.81
2022-09-06T04:59:36.480Z,101840.28
2022-09-06T05:02:03.725Z,101841.00
2022-09-06T05:04:30.633Z,101848.91
2022-09-06T05:07:06.619Z,101853.88
2022-09-06T05:09:33.935Z,101851.28
2022-09-06T05:12:01.844Z,101855.50
2022-09-06T05:14:29.145Z,101857.03
2022-09-06T05:16:56.083Z,101851.63
2022-09-06T05:19:23.181Z,101853.09
2022-09-06T05:21:51.433Z,101857.31
2022-09-06T05:24:18.520Z,101865.50
2022-09-06T05:26:45.284Z,101858.25
2022-09-06T05:29:12.132Z,101864.38
2022-09-06T05:31:39.593Z,101859.69
2022-09-06T05:34:06.437Z,101869.44
2022-09-06T05:36:33.269Z,101870.25
2022-09-06T05:39:00.280Z,101865.28
2022-09-06T05:41:27.505Z,101873.13
2022-09-06T05:43:54.702Z,101871.25
2022-09-06T05:46:21.532Z,101875.63
2022-09-06T05:49:07.783Z,101880.31
2022-09-06T05:51:34.736Z,101872.91
2022-09-06T05:54:01.587Z,101882.97
2022-09-06T05:56:28.346Z,101883.81
2022-09-06T05:58:55.136Z,101894.38
2022-09-06T06:01:30.202Z,101894.19
2022-09-06T06:04:00.344Z,101900.34
2022-09-06T06:06:29.008Z,101915.81
2022-09-06T06:08:56.414Z,101919.81
2022-09-06T06:11:24.323Z,101933.06
2022-09-06T06:13:53.015Z,101936.94
2022-09-06T06:16:22.395Z,101950.22
2022-09-06T06:18:52.280Z,101951.78
2022-09-06T06:21:25.030Z,101952.56
2022-09-06T06:23:58.186Z,101953.34
2022-09-06T06:26:26.274Z,101960.72
2022-09-06T06:28:53.615Z,101979.63
2022-09-06T06:31:22.592Z,101982.31
2022-09-06T06:33:50.084Z,102000.19
2022-09-06T06:36:16.849Z,101986.53
2022-09-06T06:38:45.550Z,101982.19
2022-09-06T06:41:14.584Z,101971.19
2022-09-06T06:43:41.365Z,101963.69
2022-09-06T06:46:15.010Z,101962.66
2022-09-06T06:48:43.759Z,101959.31
2022-09-06T06:51:18.502Z,101951.50
2022-09-06T06:53:49.622Z,101925.16
2022-09-06T06:56:19.261Z,101906.53
2022-09-06T06:58:48.342Z,101914.38
2022-09-06T07:01:16.567Z,101917.34
2022-09-06T07:03:43.563Z,101913.72
2022-09-06T07:06:11.769Z,101910.97
2022-09-06T07:08:40.370Z,101919.50
2022-09-06T07:11:08.714Z,101924.59
2022-09-06T07:13:35.698Z,101921.06
2022-09-06T07:16:13.464Z,101919.59
2022-09-06T07:18:42.099Z,101919.44
2022-09-06T07:24:08.177Z,101918.59
2022-09-06T07:26:37.722Z,101914.91
2022-09-06T07:29:06.243Z,101917.97
2022-09-06T07:34:22.032Z,101925.31
2022-09-06T07:36:51.680Z,101931.91
2022-09-06T07:39:18.426Z,101936.03
2022-09-06T07:41:45.186Z,101937.06
2022-09-06T07:44:11.989Z,101930.72
2022-09-06T07:46:38.855Z,101928.88
2022-09-06T07:49:06.340Z,101908.84
2022-09-06T07:51:33.507Z,101903.88
2022-09-06T07:54:29.448Z,101896.41
2022-09-06T07:56:47.753Z,101889.81
2022-09-06T07:59:14.578Z,101885.22
2022-09-06T08:01:41.939Z,101879.22
2022-09-06T08:04:14.284Z,101860.84
2022-09-06T08:09:30.546Z,101843.19
2022-09-06T08:11:57.366Z,101823.44
2022-09-06T08:14:24.319Z,101815.50
2022-09-06T08:16:51.077Z,101808.31
2022-09-06T08:19:18.496Z,101813.91
2022-09-06T08:21:45.366Z,101812.53
2022-09-06T08:24:12.183Z,101822.16
2022-09-06T08:26:40.712Z,101843.09
2022-09-06T08:29:09.073Z,101840.47
2022-09-06T08:31:39.189Z,101832.22
2022-09-06T08:34:06.414Z,101823.50
2022-09-06T08:36:34.439Z,101814.72
2022-09-06T08:39:06.731Z,101802.66
2022-09-06T08:41:38.079Z,101795.72
2022-09-06T08:47:07.955Z,101795.59
2022-09-06T08:49:41.868Z,101795.59
2022-09-06T08:52:17.604Z,101788.53
2022-09-06T08:54:48.831Z,101783.53
2022-09-06T08:57:25.193Z,101789.03
2022-09-06T08:59:59.725Z,101792.97
2022-09-06T09:02:27.858Z,101790.16
2022-09-06T09:05:02.337Z,101783.81
2022-09-06T09:07:43.340Z,101779.13
2022-09-06T09:10:15.666Z,101776.97
2022-09-06T09:12:51.600Z,101776.31
2022-09-06T09:15:21.162Z,101782.66
2022-09-06T09:17:50.679Z,101793.06
2022-09-06T09:20:17.888Z,101794.63
2022-09-06T09:22:45.463Z,101784.91
2022-09-06T09:25:19.332Z,101786.56
2022-09-06T09:27:46.932Z,101790.56
2022-09-06T09:33:00.866Z,101782.72
2022-09-06T09:35:37.267Z,101788.28
2022-09-06T09:38:11.061Z,101785.06
2022-09-06T09:40:54.192Z,101782.09
2022-09-06T09:43:23.961Z,101783.25
2022-09-06T09:46:10.538Z,101776.03
2022-09-06T09:48:38.126Z,101779.44
2022-09-06T09:51:27.330Z,101777.28
2022-09-06T09:54:00.484Z,101778.75
2022-09-06T09:56:54.337Z,101784.88
2022-09-06T09:59:25.882Z,101789.47
2022-09-06T10:02:16.085Z,101779.53
2022-09-06T10:04:49.793Z,101782.44
2022-09-06T10:07:19.906Z,101774.09
2022-09-06T10:09:49.097Z,101771.25
2022-09-06T10:12:18.993Z,101778.41
2022-09-06T10:14:49.221Z,101761.78
2022-09-06T10:17:30.812Z,101762.19
2022-09-06T10:20:02.214Z,101764.81
2022-09-06T10:22:40.201Z,101771.53
2022-09-06T10:25:24.934Z,101760.78
2022-09-06T10:28:11.679Z,101755.06
2022-09-06T10:30:49.101Z,101745.16
2022-09-06T10:33:24.805Z,101738.75
2022-09-06T10:35:52.631Z,101744.19
2022-09-06T10:38:43.744Z,101732.19
2022-09-06T10:41:22.664Z,101724.09
2022-09-06T10:44:10.960Z,101725.53
2022-09-06T10:46:41.378Z,101718.44
2022-09-06T10:49:15.986Z,101713.09
2022-09-06T10:51:52.228Z,101716.47
2022-09-06T10:54:23.916Z,101719.41
2022-09-06T10:57:09.345Z,101714.84
2022-09-06T11:00:02.945Z,101708.38
2022-09-06T11:05:44.180Z,101708.63
2022-09-06T11:11:11.290Z,101696.22
2022-09-06T11:13:38.507Z,101694.03
2022-09-06T11:16:40.017Z,101689.91
2022-09-06T11:19:17.506Z,101689.47
2022-09-06T11:22:05.942Z,101690.34
2022-09-06T11:25:17.650Z,101697.00
2022-09-06T11:27:53.059Z,101692.19
2022-09-06T11:30:25.531Z,101701.69
2022-09-06T11:33:09.120Z,101688.88
2022-09-06T11:35:36.846Z,101702.97
2022-09-06T11:38:16.863Z,101683.88
2022-09-06T11:40:47.695Z,101687.66
2022-09-06T11:43:48.231Z,101670.59
2022-09-06T11:46:33.260Z,101694.00
2022-09-06T11:49:01.114Z,101691.25
2022-09-06T11:51:35.888Z,101681.16
2022-09-06T11:54:15.013Z,101700.31
2022-09-06T11:56:55.685Z,101680.81
2022-09-06T11:59:50.737Z,101673.88
2022-09-06T12:02:36.379Z,101677.28
2022-09-06T12:05:07.414Z,101671.06
2022-09-06T12:07:38.578Z,101674.66
2022-09-06T12:10:40.279Z,101666.63
2022-09-06T12:13:40.665Z,101668.72
2022-09-06T12:16:09.107Z,101665.91
2022-09-06T12:18:47.977Z,101654.31
2022-09-06T12:21:33.535Z,101654.56
2022-09-06T12:24:01.112Z,101649.84
2022-09-06T12:26:55.373Z,101654.78
2022-09-06T12:29:27.248Z,101647.97
2022-09-06T12:31:57.272Z,101635.22
2022-09-06T12:34:31.574Z,101640.69
2022-09-06T12:37:02.241Z,101642.03
2022-09-06T12:39:29.259Z,101646.13
2022-09-06T12:42:16.701Z,101639.63
2022-09-06T12:44:49.210Z,101636.09
2022-09-06T12:47:23.573Z,101641.22
2022-09-06T12:50:26.046Z,101636.19
2022-09-06T12:53:02.038Z,101633.34
2022-09-06T12:55:35.885Z,101638.19
2022-09-06T12:58:08.241Z,101631.81
2022-09-06T13:00:53.551Z,101634.31
2022-09-06T13:03:36.855Z,101628.81
2022-09-06T13:06:06.219Z,101618.06
2022-09-06T13:08:46.451Z,101619.09
2022-09-06T13:11:16.733Z,101606.78
2022-09-06T13:13:52.436Z,101597.53
2022-09-06T13:16:28.586Z,101593.00
2022-09-06T13:19:10.132Z,101599.91
2022-09-06T13:21:39.834Z,101600.38
2022-09-06T13:24:19.879Z,101589.78
2022-09-06T13:26:46.736Z,101589.56
2022-09-06T13:29:16.442Z,101607.91
2022-09-06T13:31:48.421Z,101584.56
2022-09-06T13:34:24.175Z,101579.75
2022-09-06T13:36:53.441Z,101577.81
2022-09-06T13:39:40.263Z,101584.47
2022-09-06T13:42:23.471Z,101570.81
2022-09-06T13:44:51.159Z,101592.78
2022-09-06T13:47:17.971Z,101579.38
2022-09-06T13:49:44.898Z,101587.03
2022-09-06T13:52:11.707Z,101579.63
2022-09-06T13:54:40.008Z,101592.44
2022-09-06T13:57:07.109Z,101587.72
2022-09-06T13:59:33.902Z,101584.94
2022-09-06T14:02:05.651Z,101599.91
2022-09-06T14:04:32.637Z,101605.38
2022-09-06T14:06:59.592Z,101596.69
2022-09-06T14:09:26.891Z,101587.38
2022-09-06T14:11:53.747Z,101587.34
2022-09-06T14:14:21.022Z,101579.94
2022-09-06T14:16:47.906Z,101581.38
2022-09-06T14:19:15.321Z,101580.13
2022-09-06T14:21:42.160Z,101573.69
2022-09-06T14:24:09.636Z,101568.66
2022-09-06T14:26:37.245Z,101566.94
2022-09-06T14:29:04.478Z,101561.25
2022-09-06T14:31:32.724Z,101557.00
2022-09-06T14:34:01.493Z,101557.25
2022-09-06T14:36:31.586Z,101565.63
2022-09-06T14:38:59.750Z,101559.34
2022-09-06T14:41:27.596Z,101545.28
2022-09-06T14:43:57.260Z,101547.38
2022-09-06T14:46:25.958Z,101545.13
2022-09-06T14:49:13.372Z,101549.38
2022-09-06T14:51:40.741Z,101547.56
2022-09-06T14:54:10.540Z,101551.69
2022-09-06T14:56:40.335Z,101535.91
2022-09-06T14:59:09.200Z,101537.47
2022-09-06T15:01:38.653Z,101540.88
2022-09-06T15:04:08.064Z,101538.41
2022-09-06T15:06:37.000Z,101531.47
2022-09-06T15:09:05.625Z,101530.00
2022-09-06T15:11:50.651Z,101529.91
2022-09-06T15:14:20.677Z,101528.47
2022-09-06T15:16:54.753Z,101528.13
2022-09-06T15:19:27.218Z,101518.22
2022-09-06T15:21:55.596Z,101518.69
2022-09-06T15:24:22.515Z,101509.00
2022-09-06T15:26:49.981Z,101505.72
2022-09-06T15:29:17.210Z,101506.78
2022-09-06T15:31:48.300Z,101500.41
2022-09-06T15:34:15.209Z,101504.72
2022-09-06T15:36:41.975Z,101493.25
2022-09-06T15:39:08.784Z,101491.41
2022-09-06T15:41:37.409Z,101488.03
2022-09-06T15:44:10.529Z,101491.16
2022-09-06T15:46:54.866Z,101496.50
2022-09-06T15:49:28.113Z,101499.66
2022-09-06T15:52:00.938Z,101503.91
2022-09-06T15:54:47.644Z,101507.34
2022-09-06T15:57:16.443Z,101508.59
2022-09-06T15:59:43.902Z,101506.75
2022-09-06T16:02:10.957Z,101511.31
2022-09-06T16:04:37.980Z,101514.38
2022-09-06T16:07:05.159Z,101510.75
2022-09-06T16:09:31.892Z,101512.97
2022-09-06T16:11:58.653Z,101511.88
2022-09-06T16:14:25.710Z,101518.81
2022-09-06T16:16:54.768Z,101511.22
2022-09-06T16:19:21.982Z,101507.66
2022-09-06T16:21:48.794Z,101504.88
2022-09-06T16:24:18.180Z,101501.22
2022-09-06T16:26:46.781Z,101499.25
2022-09-06T16:29:16.325Z,101507.31
2022-09-06T16:31:43.480Z,101510.44
2022-09-06T16:34:11.836Z,101506.25
2022-09-06T16:36:39.109Z,101502.56
2022-09-06T16:39:07.364Z,101504.22
2022-09-06T16:41:40.542Z,101506.53
2022-09-06T16:44:09.425Z,101509.41
2022-09-06T16:46:36.261Z,101507.72
2022-09-06T16:49:04.439Z,101509.81
2022-09-06T16:51:31.633Z,101511.63
2022-09-06T16:53:59.676Z,101511.88
2022-09-06T16:56:29.217Z,101509.81
2022-09-06T16:58:58.666Z,101514.44
2022-09-06T17:01:27.315Z,101504.78
2022-09-06T17:03:54.565Z,101506.72
2022-09-06T17:06:23.005Z,101513.88
2022-09-06T17:08:50.194Z,101513.81
2022-09-06T17:11:20.122Z,101517.19
2022-09-06T17:13:49.298Z,101515.06
2022-09-06T17:16:35.668Z,101524.72
2022-09-06T17:19:04.317Z,101526.91
2022-09-06T17:21:31.756Z,101530.22
2022-09-06T17:24:01.772Z,101535.50
2022-09-06T17:26:30.916Z,101536.16
2022-09-06T17:28:58.624Z,101533.28
2022-09-06T17:31:26.144Z,101537.44
2022-09-06T17:33:53.476Z,101543.97
2022-09-06T17:36:30.528Z,101544.19
2022-09-06T17:39:02.049Z,101548.16
2022-09-06T17:41:35.403Z,101548.47
2022-09-06T17:44:02.209Z,101540.06
2022-09-06T17:46:29.371Z,101555.47
2022-09-06T17:48:57.149Z,101560.47
2022-09-06T17:51:25.275Z,101555.78
2022-09-06T17:53:52.994Z,101557.69
2022-09-06T17:56:20.801Z,101567.75
2022-09-06T17:58:55.857Z,101567.31
2022-09-06T18:01:24.167Z,101569.13
2022-09-06T18:03:51.393Z,101585.47
2022-09-06T18:06:22.666Z,101583.13
2022-09-06T18:08:52.243Z,101583.53
2022-09-06T18:11:25.691Z,101576.78
2022-09-06T18:13:59.694Z,101576.88
2022-09-06T18:16:27.463Z,101582.72
2022-09-06T18:18:57.336Z,101583.25
2022-09-06T18:21:25.926Z,101594.72
2022-09-06T18:23:54.049Z,101585.00
2022-09-06T18:26:21.215Z,101586.22
2022-09-06T18:28:48.121Z,101593.00
2022-09-06T18:31:18.709Z,101596.28
2022-09-06T18:33:46.174Z,101608.78
2022-09-06T18:36:15.573Z,101610.31
2022-09-06T18:38:43.063Z,101616.59
2022-09-06T18:41:31.681Z,101616.03
2022-09-06T18:44:02.789Z,101625.84
2022-09-06T18:46:32.537Z,101627.28
2022-09-06T18:49:00.065Z,101634.72
2022-09-06T18:51:27.708Z,101629.38
2022-09-06T18:53:56.774Z,101636.22
2022-09-06T18:56:24.095Z,101646.31
2022-09-06T18:58:54.864Z,101650.31
2022-09-06T19:01:21.889Z,101660.41
2022-09-06T19:03:48.766Z,101660.00
2022-09-06T19:06:18.476Z,101669.66
2022-09-06T19:08:46.704Z,101678.00
2022-09-06T19:11:17.032Z,101687.25
2022-09-06T19:13:45.815Z,101688.44
2022-09-06T19:16:13.981Z,101697.75
2022-09-06T19:18:41.832Z,101704.13
2022-09-06T19:21:11.737Z,101701.47
2022-09-06T19:23:41.048Z,101704.47
2022-09-06T19:26:10.980Z,101702.75
2022-09-06T19:28:38.591Z,101705.31
2022-09-06T19:31:13.431Z,101699.91
2022-09-06T19:33:41.397Z,101699.31
2022-09-06T19:36:12.001Z,101702.44
2022-09-06T19:39:02.614Z,101699.16
2022-09-06T19:41:29.004Z,101709.38
2022-09-06T19:43:57.283Z,101714.13
2022-09-06T19:46:25.065Z,101708.34
2022-09-06T19:48:54.074Z,101721.31
2022-09-06T19:51:21.522Z,101722.63
2022-09-06T19:53:51.500Z,101723.94
2022-09-06T19:56:22.622Z,101729.81
2022-09-06T19:59:04.163Z,101736.31
2022-09-06T20:01:32.811Z,101749.97
2022-09-06T20:04:02.643Z,101754.69
2022-09-06T20:06:30.522Z,101763.75
2022-09-06T20:08:58.881Z,101758.59
2022-09-06T20:11:30.976Z,101767.69
2022-09-06T20:13:57.918Z,101761.66
2022-09-06T20:16:25.637Z,101769.88
2022-09-06T20:18:54.544Z,101769.16
2022-09-06T20:21:21.809Z,101775.34
2022-09-06T20:23:54.553Z,101774.41
2022-09-06T20:26:23.868Z,101776.22
2022-09-06T20:28:58.387Z,101787.03
2022-09-06T20:31:26.515Z,101784.44
2022-09-06T20:33:53.502Z,101790.06
2022-09-06T20:36:20.669Z,101795.53
2022-09-06T20:38:48.556Z,101793.97
2022-09-06T20:41:20.889Z,101794.03
2022-09-06T20:43:58.468Z,101788.88
2022-09-06T20:46:27.512Z,101798.66
2022-09-06T20:48:56.704Z,101795.22
2022-09-06T20:51:24.181Z,101789.28
2022-09-06T20:53:55.967Z,101792.56
2022-09-06T20:56:33.192Z,101794.13
2022-09-06T20:59:02.431Z,101780.03
2022-09-06T21:01:31.526Z,101780.66
2022-09-06T21:04:00.148Z,101785.16
2022-09-06T21:06:29.601Z,101779.03
2022-09-06T21:08:57.628Z,101771.22
2022-09-06T21:11:24.506Z,101758.72
2022-09-06T21:13:53.712Z,101765.59
2022-09-06T21:16:24.613Z,101755.78
2022-09-06T21:18:57.186Z,101754.63
2022-09-06T21:21:25.501Z,101746.31
2022-09-06T21:23:53.175Z,101737.34
2022-09-06T21:26:20.741Z,101736.31
2022-09-06T21:28:48.232Z,101721.22
2022-09-06T21:31:18.671Z,101718.81
2022-09-06T21:33:48.353Z,101716.84
2022-09-06T21:36:17.437Z,101703.63
2022-09-06T21:38:46.280Z,101695.72
2022-09-06T21:41:15.404Z,101685.63
2022-09-06T21:43:43.087Z,101665.13
2022-09-06T21:46:16.117Z,101664.97
2022-09-06T21:48:45.961Z,101658.63
2022-09-06T21:51:15.269Z,101649.38
2022-09-06T21:53:44.475Z,101645.44
2022-09-06T21:56:12.222Z,101643.63
2022-09-06T21:58:40.436Z,101636.00
2022-09-06T22:01:08.359Z,101631.69
2022-09-06T22:03:43.870Z,101627.66
2022-09-06T22:06:13.909Z,101623.25
2022-09-06T22:08:43.982Z,101631.84
2022-09-06T22:11:16.698Z,101634.44
2022-09-06T22:13:44.812Z,101635.47
2022-09-06T22:16:13.054Z,101633.91
2022-09-06T22:18:40.189Z,101623.44
2022-09-06T22:21:12.345Z,101619.13
2022-09-06T22:23:39.625Z,101608.66
2022-09-06T22:26:09.312Z,101595.69
2022-09-06T22:28:37.058Z,101612.50
2022-09-06T22:31:04.980Z,101600.94
2022-09-06T22:33:31.761Z,101611.72
2022-09-06T22:36:01.440Z,101620.78
2022-09-06T22:38:30.108Z,101615.47
2022-09-06T22:40:57.398Z,101618.94
2022-09-06T22:43:24.868Z,101609.31
2022-09-06T22:45:52.229Z,101607.69
2022-09-06T22:48:19.301Z,101616.34
2022-09-06T22:50:47.195Z,101613.78
2022-09-06T22:53:14.047Z,101613.69
2022-09-06T22:55:47.133Z,101609.31
2022-09-06T22:58:14.034Z,101597.75
2022-09-06T23:00:41.036Z,101600.91
2022-09-06T23:03:07.846Z,101607.75
2022-09-06T23:05:34.625Z,101604.38
2022-09-06T23:08:02.598Z,101598.16
2022-09-06T23:10:30.308Z,101601.56
2022-09-06T23:12:58.616Z,101603.31
2022-09-06T23:15:25.631Z,101602.78
2022-09-06T23:17:52.749Z,101605.78
2022-09-06T23:20:19.539Z,101606.47
2022-09-06T23:22:47.508Z,101617.81
2022-09-06T23:25:14.324Z,101615.78
2022-09-06T23:27:41.059Z,101617.06
2022-09-06T23:30:08.627Z,101624.53
2022-09-06T23:32:35.784Z,101639.22
2022-09-06T23:35:02.594Z,101622.72
2022-09-06T23:37:29.365Z,101610.47
2022-09-06T23:39:56.179Z,101604.81
2022-09-06T23:42:23.201Z,101591.06
2022-09-06T23:44:54.385Z,101578.69
2022-09-06T23:47:21.284Z,101568.56
2022-09-06T23:49:50.766Z,101562.44
2022-09-06T23:52:18.299Z,101563.31
2022-09-06T23:54:45.062Z,101567.16
2022-09-06T23:57:11.937Z,101562.03
2022-09-06T23:59:38.745Z,101564.94
